St Leonards-on-Sea, United Kingdom
Current Conditions -  °F | °C
As of 11:50 AM on Wednesday 28 Jan 2015 (Local Time) from EGMD Reporting Station
Light Rain Light Rain  
Wind Chill: 50°   Ceiling: 400
Heat Index: 50°   Visibility: 2.5mi
Dew Point: 50°   Wind: 35mph
Humidity: 100%   Direction: 230°SW
Pressure: 29.56"   Gusts: NA
Location:  50.85°N, 0.56°E
Report Text: EGMD 281150Z 23030KT 4000 -RADZ BKN004 10/10 Q1001
Loading
Personal Weather Stations






























Interactive Weather Map New forecast layout! Learn more

10-Day Weather Forecast

Advertisements
Track Severe Weather on mobile